sensor_id;sensor_type;location;lat;lon;timestamp;pressure;altitude;pressure_sealevel;temperature;humidity
70781;BME280;59514;48.810;2.134;2023-04-07T00:00:12;100398.03;;;7.11;84.36
70781;BME280;59514;48.810;2.134;2023-04-07T00:02:37;100396.78;;;7.07;87.32
70781;BME280;59514;48.810;2.134;2023-04-07T00:05:03;100396.53;;;7.02;84.94
70781;BME280;59514;48.810;2.134;2023-04-07T00:07:28;100401.06;;;7.02;88.90
70781;BME280;59514;48.810;2.134;2023-04-07T00:09:53;100401.66;;;6.97;89.72
70781;BME280;59514;48.810;2.134;2023-04-07T00:12:19;100397.31;;;6.83;86.07
70781;BME280;59514;48.810;2.134;2023-04-07T00:14:44;100397.09;;;6.78;87.01
70781;BME280;59514;48.810;2.134;2023-04-07T00:17:10;100390.91;;;6.71;86.33
70781;BME280;59514;48.810;2.134;2023-04-07T00:19:35;100394.94;;;6.60;89.82
70781;BME280;59514;48.810;2.134;2023-04-07T00:22:00;100390.03;;;6.57;86.92
70781;BME280;59514;48.810;2.134;2023-04-07T00:24:26;100385.53;;;6.58;87.23
70781;BME280;59514;48.810;2.134;2023-04-07T00:26:51;100386.16;;;6.60;90.61
70781;BME280;59514;48.810;2.134;2023-04-07T00:29:16;100389.22;;;6.63;89.51
70781;BME280;59514;48.810;2.134;2023-04-07T00:31:42;100385.75;;;6.63;89.24
70781;BME280;59514;48.810;2.134;2023-04-07T00:34:07;100384.72;;;6.64;91.50
70781;BME280;59514;48.810;2.134;2023-04-07T00:36:32;100381.06;;;6.71;87.05
70781;BME280;59514;48.810;2.134;2023-04-07T00:38:58;100380.84;;;6.73;88.04
70781;BME280;59514;48.810;2.134;2023-04-07T00:41:23;100370.22;;;6.79;90.25
70781;BME280;59514;48.810;2.134;2023-04-07T00:43:49;100372.06;;;6.79;87.35
70781;BME280;59514;48.810;2.134;2023-04-07T00:46:16;100372.88;;;6.79;90.58
70781;BME280;59514;48.810;2.134;2023-04-07T00:48:42;100373.50;;;6.81;92.12
70781;BME280;59514;48.810;2.134;2023-04-07T00:51:07;100370.41;;;6.78;87.36
70781;BME280;59514;48.810;2.134;2023-04-07T00:53:33;100367.94;;;6.76;89.64
70781;BME280;59514;48.810;2.134;2023-04-07T00:55:58;100369.19;;;6.74;88.85
70781;BME280;59514;48.810;2.134;2023-04-07T00:58:23;100363.00;;;6.73;90.07
70781;BME280;59514;48.810;2.134;2023-04-07T01:01:05;100366.09;;;6.77;93.08
70781;BME280;59514;48.810;2.134;2023-04-07T01:03:36;100365.25;;;6.76;93.93
70781;BME280;59514;48.810;2.134;2023-04-07T01:06:05;100367.53;;;6.79;88.73
70781;BME280;59514;48.810;2.134;2023-04-07T01:08:53;100364.28;;;6.84;94.00
70781;BME280;59514;48.810;2.134;2023-04-07T01:11:47;100353.78;;;6.76;93.57
70781;BME280;59514;48.810;2.134;2023-04-07T01:14:17;100356.00;;;6.66;97.21
70781;BME280;59514;48.810;2.134;2023-04-07T01:16:48;100356.81;;;6.60;96.05
70781;BME280;59514;48.810;2.134;2023-04-07T01:19:33;100354.94;;;6.54;90.47
70781;BME280;59514;48.810;2.134;2023-04-07T01:22:02;100357.59;;;6.54;91.92
70781;BME280;59514;48.810;2.134;2023-04-07T01:27:20;100358.84;;;6.58;95.13
70781;BME280;59514;48.810;2.134;2023-04-07T01:29:50;100362.53;;;6.57;92.27
70781;BME280;59514;48.810;2.134;2023-04-07T01:32:17;100366.44;;;6.61;90.09
70781;BME280;59514;48.810;2.134;2023-04-07T01:34:47;100368.09;;;6.62;97.24
70781;BME280;59514;48.810;2.134;2023-04-07T01:37:15;100367.06;;;6.63;93.92
70781;BME280;59514;48.810;2.134;2023-04-07T01:39:40;100369.97;;;6.68;95.13
70781;BME280;59514;48.810;2.134;2023-04-07T01:42:06;100367.94;;;6.70;95.20
70781;BME280;59514;48.810;2.134;2023-04-07T01:44:33;100370.34;;;6.65;97.24
70781;BME280;59514;48.810;2.134;2023-04-07T01:47:00;100371.56;;;6.62;93.52
70781;BME280;59514;48.810;2.134;2023-04-07T01:49:26;100369.53;;;6.64;94.09
70781;BME280;59514;48.810;2.134;2023-04-07T01:51:53;100363.38;;;6.64;93.47
70781;BME280;59514;48.810;2.134;2023-04-07T01:54:19;100364.81;;;6.66;95.17
70781;BME280;59514;48.810;2.134;2023-04-07T01:56:45;100371.41;;;6.64;93.64
70781;BME280;59514;48.810;2.134;2023-04-07T01:59:10;100374.06;;;6.64;93.68
70781;BME280;59514;48.810;2.134;2023-04-07T02:01:36;100376.09;;;6.62;99.62
70781;BME280;59514;48.810;2.134;2023-04-07T02:04:24;100371.56;;;6.56;100.00
70781;BME280;59514;48.810;2.134;2023-04-07T02:06:56;100370.28;;;6.45;94.29
70781;BME280;59514;48.810;2.134;2023-04-07T02:09:26;100371.06;;;6.39;97.16
70781;BME280;59514;48.810;2.134;2023-04-07T02:11:54;100367.34;;;6.34;95.42
70781;BME280;59514;48.810;2.134;2023-04-07T02:14:22;100370.03;;;6.34;100.00
70781;BME280;59514;48.810;2.134;2023-04-07T02:16:48;100370.19;;;6.26;98.99
70781;BME280;59514;48.810;2.134;2023-04-07T02:19:15;100370.59;;;6.29;93.47
70781;BME280;59514;48.810;2.134;2023-04-07T02:21:41;100372.84;;;6.26;98.66
70781;BME280;59514;48.810;2.134;2023-04-07T02:24:06;100369.50;;;6.17;97.51
70781;BME280;59514;48.810;2.134;2023-04-07T02:26:35;100369.50;;;6.17;96.78
70781;BME280;59514;48.810;2.134;2023-04-07T02:29:04;100366.78;;;6.10;95.79
70781;BME280;59514;48.810;2.134;2023-04-07T02:31:30;100373.16;;;6.09;96.76
70781;BME280;59514;48.810;2.134;2023-04-07T02:33:56;100369.88;;;6.07;100.00
70781;BME280;59514;48.810;2.134;2023-04-07T02:36:21;100372.69;;;5.99;99.13
70781;BME280;59514;48.810;2.134;2023-04-07T02:38:47;100376.53;;;5.90;100.00
70781;BME280;59514;48.810;2.134;2023-04-07T02:41:12;100366.25;;;5.87;100.00
70781;BME280;59514;48.810;2.134;2023-04-07T02:43:37;100368.19;;;5.79;100.00
70781;BME280;59514;48.810;2.134;2023-04-07T02:46:02;100369.44;;;5.76;100.00
70781;BME280;59514;48.810;2.134;2023-04-07T02:48:28;100369.31;;;5.63;100.00
70781;BME280;59514;48.810;2.134;2023-04-07T02:50:53;100364.38;;;5.60;100.00
70781;BME280;59514;48.810;2.134;2023-04-07T02:53:18;100368.44;;;5.56;100.00
70781;BME280;59514;48.810;2.134;2023-04-07T02:55:44;100365.78;;;5.56;100.00
70781;BME280;59514;48.810;2.134;2023-04-07T02:58:10;100373.50;;;5.51;100.00
70781;BME280;59514;48.810;2.134;2023-04-07T03:00:35;100371.69;;;5.52;100.00
70781;BME280;59514;48.810;2.134;2023-04-07T03:03:00;100381.06;;;5.48;100.00
70781;BME280;59514;48.810;2.134;2023-04-07T03:05:26;100378.59;;;5.46;100.00
70781;BME280;59514;48.810;2.134;2023-04-07T03:07:51;100384.94;;;5.45;100.00
70781;BME280;59514;48.810;2.134;2023-04-07T03:10:16;100382.47;;;5.44;100.00
70781;BME280;59514;48.810;2.134;2023-04-07T03:12:42;100380.84;;;5.43;100.00
70781;BME280;59514;48.810;2.134;2023-04-07T03:15:08;100380.13;;;5.34;100.00
70781;BME280;59514;48.810;2.134;2023-04-07T03:17:33;100373.13;;;5.33;100.00
70781;BME280;59514;48.810;2.134;2023-04-07T03:19:59;100381.72;;;5.29;100.00
70781;BME280;59514;48.810;2.134;2023-04-07T03:22:25;100368.78;;;5.25;100.00
70781;BME280;59514;48.810;2.134;2023-04-07T03:24:50;100375.94;;;5.25;100.00
70781;BME280;59514;48.810;2.134;2023-04-07T03:27:15;100379.63;;;5.24;100.00
70781;BME280;59514;48.810;2.134;2023-04-07T03:29:41;100369.81;;;5.24;100.00
70781;BME280;59514;48.810;2.134;2023-04-07T03:32:07;100372.84;;;5.21;100.00
70781;BME280;59514;48.810;2.134;2023-04-07T03:34:33;100377.16;;;5.22;100.00
70781;BME280;59514;48.810;2.134;2023-04-07T03:36:58;100382.00;;;5.19;100.00
70781;BME280;59514;48.810;2.134;2023-04-07T03:39:23;100382.00;;;5.19;100.00
70781;BME280;59514;48.810;2.134;2023-04-07T03:41:49;100379.34;;;5.19;100.00
70781;BME280;59514;48.810;2.134;2023-04-07T03:44:15;100379.75;;;5.16;100.00
70781;BME280;59514;48.810;2.134;2023-04-07T03:46:41;100374.19;;;5.11;100.00
70781;BME280;59514;48.810;2.134;2023-04-07T03:49:06;100369.63;;;5.05;100.00
70781;BME280;59514;48.810;2.134;2023-04-07T03:51:31;100375.06;;;4.97;100.00
70781;BME280;59514;48.810;2.134;2023-04-07T03:53:58;100383.66;;;4.99;100.00
70781;BME280;59514;48.810;2.134;2023-04-07T03:56:23;100379.34;;;4.98;100.00
70781;BME280;59514;48.810;2.134;2023-04-07T03:58:49;100374.59;;;4.93;100.00
70781;BME280;59514;48.810;2.134;2023-04-07T04:01:14;100374.78;;;4.92;100.00
70781;BME280;59514;48.810;2.134;2023-04-07T04:03:40;100377.44;;;4.92;100.00
70781;BME280;59514;48.810;2.134;2023-04-07T04:06:05;100384.88;;;4.96;100.00
70781;BME280;59514;48.810;2.134;2023-04-07T04:08:31;100379.16;;;4.99;100.00
70781;BME280;59514;48.810;2.134;2023-04-07T04:10:56;100383.03;;;4.97;100.00
70781;BME280;59514;48.810;2.134;2023-04-07T04:13:21;100375.81;;;4.91;100.00
70781;BME280;59514;48.810;2.134;2023-04-07T04:15:47;100385.34;;;4.85;100.00
70781;BME280;59514;48.810;2.134;2023-04-07T04:18:12;100394.53;;;4.83;100.00
70781;BME280;59514;48.810;2.134;2023-04-07T04:20:37;100386.09;;;4.79;100.00
70781;BME280;59514;48.810;2.134;2023-04-07T04:23:03;100395.66;;;4.74;100.00
70781;BME280;59514;48.810;2.134;2023-04-07T04:25:28;100396.66;;;4.73;100.00
70781;BME280;59514;48.810;2.134;2023-04-07T04:27:53;100400.31;;;4.72;100.00
70781;BME280;59514;48.810;2.134;2023-04-07T04:30:19;100401.06;;;4.66;100.00
70781;BME280;59514;48.810;2.134;2023-04-07T04:32:44;100396.50;;;4.60;100.00
70781;BME280;59514;48.810;2.134;2023-04-07T04:35:10;100401.16;;;4.58;100.00
70781;BME280;59514;48.810;2.134;2023-04-07T04:37:35;100404.84;;;4.57;100.00
70781;BME280;59514;48.810;2.134;2023-04-07T04:40:00;100402.44;;;4.62;100.00
70781;BME280;59514;48.810;2.134;2023-04-07T04:42:26;100400.81;;;4.61;100.00
70781;BME280;59514;48.810;2.134;2023-04-07T04:44:52;100398.59;;;4.64;100.00
70781;BME280;59514;48.810;2.134;2023-04-07T04:47:17;100399.88;;;4.68;100.00
70781;BME280;59514;48.810;2.134;2023-04-07T04:49:43;100398.25;;;4.67;100.00
70781;BME280;59514;48.810;2.134;2023-04-07T04:52:08;100401.06;;;4.66;100.00
70781;BME280;59514;48.810;2.134;2023-04-07T04:54:34;100401.66;;;4.61;100.00
70781;BME280;59514;48.810;2.134;2023-04-07T04:56:59;100402.44;;;4.62;100.00
70781;BME280;59514;48.810;2.134;2023-04-07T04:59:25;100409.78;;;4.60;100.00
70781;BME280;59514;48.810;2.134;2023-04-07T05:01:51;100417.13;;;4.58;100.00
70781;BME280;59514;48.810;2.134;2023-04-07T05:04:16;100404.22;;;4.55;100.00
70781;BME280;59514;48.810;2.134;2023-04-07T05:06:42;100417.69;;;4.53;100.00
70781;BME280;59514;48.810;2.134;2023-04-07T05:09:08;100416.56;;;4.48;100.00
70781;BME280;59514;48.810;2.134;2023-04-07T05:11:33;100420.25;;;4.47;100.00
70781;BME280;59514;48.810;2.134;2023-04-07T05:13:58;100417.78;;;4.45;100.00
70781;BME280;59514;48.810;2.134;2023-04-07T05:16:23;100425.66;;;4.38;100.00
70781;BME280;59514;48.810;2.134;2023-04-07T05:18:49;100424.84;;;4.38;100.00
70781;BME280;59514;48.810;2.134;2023-04-07T05:21:14;100438.66;;;4.33;100.00
70781;BME280;59514;48.810;2.134;2023-04-07T05:23:40;100428.03;;;4.33;100.00
70781;BME280;59514;48.810;2.134;2023-04-07T05:26:05;100427.31;;;4.39;100.00
70781;BME280;59514;48.810;2.134;2023-04-07T05:28:31;100438.03;;;4.46;100.00
70781;BME280;59514;48.810;2.134;2023-04-07T05:30:56;100425.56;;;4.47;100.00
70781;BME280;59514;48.810;2.134;2023-04-07T05:33:21;100424.84;;;4.53;100.00
70781;BME280;59514;48.810;2.134;2023-04-07T05:35:47;100432.72;;;4.46;100.00
70781;BME280;59514;48.810;2.134;2023-04-07T05:38:12;100429.97;;;4.54;100.00
70781;BME280;59514;48.810;2.134;2023-04-07T05:40:38;100425.56;;;4.61;100.00
70781;BME280;59514;48.810;2.134;2023-04-07T05:43:04;100429.69;;;4.64;100.00
70781;BME280;59514;48.810;2.134;2023-04-07T05:45:29;100437.84;;;4.62;100.00
70781;BME280;59514;48.810;2.134;2023-04-07T05:47:55;100431.69;;;4.62;100.00
70781;BME280;59514;48.810;2.134;2023-04-07T05:50:20;100434.34;;;4.62;100.00
70781;BME280;59514;48.810;2.134;2023-04-07T05:52:46;100438.13;;;4.67;100.00
70781;BME280;59514;48.810;2.134;2023-04-07T05:55:11;100438.38;;;4.72;100.00
70781;BME280;59514;48.810;2.134;2023-04-07T05:57:36;100440.09;;;4.80;100.00
70781;BME280;59514;48.810;2.134;2023-04-07T06:00:02;100440.09;;;4.80;100.00
70781;BME280;59514;48.810;2.134;2023-04-07T06:02:28;100437.75;;;4.85;100.00
70781;BME280;59514;48.810;2.134;2023-04-07T06:04:54;100440.41;;;4.85;100.00
70781;BME280;59514;48.810;2.134;2023-04-07T06:07:19;100440.94;;;4.80;100.00
70781;BME280;59514;48.810;2.134;2023-04-07T06:09:44;100447.34;;;4.86;100.00
70781;BME280;59514;48.810;2.134;2023-04-07T06:12:10;100443.50;;;4.86;100.00
70781;BME280;59514;48.810;2.134;2023-04-07T06:14:36;100443.50;;;4.88;100.00
70781;BME280;59514;48.810;2.134;2023-04-07T06:17:02;100453.09;;;5.04;100.00
70781;BME280;59514;48.810;2.134;2023-04-07T06:19:27;100457.94;;;5.15;100.00
70781;BME280;59514;48.810;2.134;2023-04-07T06:21:52;100455.13;;;5.23;100.00
70781;BME280;59514;48.810;2.134;2023-04-07T06:24:18;100453.69;;;5.20;100.00
70781;BME280;59514;48.810;2.134;2023-04-07T06:26:47;100468.59;;;5.15;100.00
70781;BME280;59514;48.810;2.134;2023-04-07T06:29:12;100462.63;;;5.13;100.00
70781;BME280;59514;48.810;2.134;2023-04-07T06:31:38;100466.94;;;5.14;100.00
70781;BME280;59514;48.810;2.134;2023-04-07T06:34:03;100475.78;;;5.21;100.00
70781;BME280;59514;48.810;2.134;2023-04-07T06:36:28;100474.16;;;5.20;100.00
70781;BME280;59514;48.810;2.134;2023-04-07T06:38:54;100472.97;;;5.22;100.00
70781;BME280;59514;48.810;2.134;2023-04-07T06:41:19;100483.31;;;5.32;100.00
70781;BME280;59514;48.810;2.134;2023-04-07T06:43:46;100484.94;;;5.33;100.00
70781;BME280;59514;48.810;2.134;2023-04-07T06:46:12;100486.22;;;5.37;100.00
70781;BME280;59514;48.810;2.134;2023-04-07T06:48:37;100490.16;;;5.41;100.00
70781;BME280;59514;48.810;2.134;2023-04-07T06:51:03;100493.53;;;5.50;100.00
70781;BME280;59514;48.810;2.134;2023-04-07T06:53:28;100495.81;;;5.53;100.00
70781;BME280;59514;48.810;2.134;2023-04-07T06:56:07;100488.16;;;5.64;100.00
70781;BME280;59514;48.810;2.134;2023-04-07T06:58:33;100488.66;;;5.74;100.00
70781;BME280;59514;48.810;2.134;2023-04-07T07:00:59;100495.81;;;5.74;100.00
70781;BME280;59514;48.810;2.134;2023-04-07T07:03:24;100501.75;;;5.90;100.00
70781;BME280;59514;48.810;2.134;2023-04-07T07:05:53;100503.53;;;5.83;100.00
70781;BME280;59514;48.810;2.134;2023-04-07T07:08:18;100510.34;;;5.71;100.00
70781;BME280;59514;48.810;2.134;2023-04-07T07:10:43;100519.19;;;5.57;100.00
70781;BME280;59514;48.810;2.134;2023-04-07T07:13:09;100521.66;;;5.59;100.00
70781;BME280;59514;48.810;2.134;2023-04-07T07:15:34;100512.75;;;5.66;100.00
70781;BME280;59514;48.810;2.134;2023-04-07T07:17:59;100519.47;;;5.62;100.00
70781;BME280;59514;48.810;2.134;2023-04-07T07:20:25;100519.72;;;5.67;100.00
70781;BME280;59514;48.810;2.134;2023-04-07T07:22:50;100527.47;;;5.62;100.00
70781;BME280;59514;48.810;2.134;2023-04-07T07:25:15;100523.25;;;5.53;100.00
70781;BME280;59514;48.810;2.134;2023-04-07T07:27:41;100522.19;;;5.69;100.00
70781;BME280;59514;48.810;2.134;2023-04-07T07:30:06;100517.97;;;5.95;100.00
70781;BME280;59514;48.810;2.134;2023-04-07T07:32:32;100525.13;;;5.95;100.00
70781;BME280;59514;48.810;2.134;2023-04-07T07:34:57;100522.88;;;5.92;100.00
70781;BME280;59514;48.810;2.134;2023-04-07T07:37:23;100525.78;;;5.97;100.00
70781;BME280;59514;48.810;2.134;2023-04-07T07:39:48;100533.84;;;6.03;100.00
70781;BME280;59514;48.810;2.134;2023-04-07T07:42:14;100525.94;;;6.17;100.00
70781;BME280;59514;48.810;2.134;2023-04-07T07:44:39;100530.50;;;6.23;100.00
70781;BME280;59514;48.810;2.134;2023-04-07T07:47:04;100531.78;;;6.27;100.00
70781;BME280;59514;48.810;2.134;2023-04-07T07:49:30;100533.72;;;6.12;100.00
70781;BME280;59514;48.810;2.134;2023-04-07T07:51:55;100534.19;;;6.22;100.00
70781;BME280;59514;48.810;2.134;2023-04-07T07:54:21;100533.34;;;6.42;100.00
70781;BME280;59514;48.810;2.134;2023-04-07T07:56:46;100532.31;;;6.43;100.00
70781;BME280;59514;48.810;2.134;2023-04-07T07:59:12;100532.38;;;6.50;100.00
70781;BME280;59514;48.810;2.134;2023-04-07T08:01:37;100530.56;;;6.57;100.00
70781;BME280;59514;48.810;2.134;2023-04-07T08:04:02;100539.69;;;6.69;100.00
70781;BME280;59514;48.810;2.134;2023-04-07T08:06:28;100539.16;;;6.80;100.00
70781;BME280;59514;48.810;2.134;2023-04-07T08:08:55;100550.25;;;6.83;100.00
70781;BME280;59514;48.810;2.134;2023-04-07T08:11:21;100535.50;;;6.94;100.00
70781;BME280;59514;48.810;2.134;2023-04-07T08:13:47;100553.28;;;6.80;100.00
70781;BME280;59514;48.810;2.134;2023-04-07T08:16:12;100544.38;;;7.01;100.00
70781;BME280;59514;48.810;2.134;2023-04-07T08:18:37;100543.44;;;7.15;100.00
70781;BME280;59514;48.810;2.134;2023-04-07T08:21:04;100543.44;;;7.15;100.00
70781;BME280;59514;48.810;2.134;2023-04-07T08:23:30;100550.84;;;7.26;100.00
70781;BME280;59514;48.810;2.134;2023-04-07T08:25:55;100553.78;;;7.31;100.00
70781;BME280;59514;48.810;2.134;2023-04-07T08:28:21;100548.69;;;7.43;100.00
70781;BME280;59514;48.810;2.134;2023-04-07T08:30:47;100548.66;;;7.36;100.00
70781;BME280;59514;48.810;2.134;2023-04-07T08:33:12;100557.06;;;7.33;100.00
70781;BME280;59514;48.810;2.134;2023-04-07T08:35:37;100553.63;;;7.52;100.00
70781;BME280;59514;48.810;2.134;2023-04-07T08:38:03;100552.97;;;7.44;100.00
70781;BME280;59514;48.810;2.134;2023-04-07T08:40:29;100553.63;;;7.52;100.00
70781;BME280;59514;48.810;2.134;2023-04-07T08:42:56;100558.00;;;7.66;100.00
70781;BME280;59514;48.810;2.134;2023-04-07T08:45:25;100551.25;;;7.83;100.00
70781;BME280;59514;48.810;2.134;2023-04-07T08:47:53;100551.91;;;8.12;100.00
70781;BME280;59514;48.810;2.134;2023-04-07T08:50:21;100537.28;;;8.08;100.00
70781;BME280;59514;48.810;2.134;2023-04-07T08:52:52;100551.16;;;8.31;100.00
70781;BME280;59514;48.810;2.134;2023-04-07T08:55:18;100548.66;;;8.49;99.87
70781;BME280;59514;48.810;2.134;2023-04-07T08:57:44;100547.81;;;8.68;99.45
70781;BME280;59514;48.810;2.134;2023-04-07T09:00:10;100547.56;;;8.89;97.11
70781;BME280;59514;48.810;2.134;2023-04-07T09:02:41;100552.66;;;9.10;94.66
70781;BME280;59514;48.810;2.134;2023-04-07T09:05:10;100556.81;;;9.06;94.55
70781;BME280;59514;48.810;2.134;2023-04-07T09:07:37;100557.97;;;9.17;92.81
70781;BME280;59514;48.810;2.134;2023-04-07T09:10:05;100554.22;;;9.37;91.79
70781;BME280;59514;48.810;2.134;2023-04-07T09:12:31;100556.88;;;9.44;90.03
70781;BME280;59514;48.810;2.134;2023-04-07T09:14:57;100566.09;;;9.54;89.30
70781;BME280;59514;48.810;2.134;2023-04-07T09:17:24;100554.00;;;9.77;89.49
70781;BME280;59514;48.810;2.134;2023-04-07T09:19:52;100556.56;;;9.96;88.51
70781;BME280;59514;48.810;2.134;2023-04-07T09:22:40;100560.41;;;10.13;87.59
70781;BME280;59514;48.810;2.134;2023-04-07T09:27:39;100560.50;;;10.31;81.97
70781;BME280;59514;48.810;2.134;2023-04-07T09:30:12;100553.53;;;10.24;81.80
70781;BME280;59514;48.810;2.134;2023-04-07T09:32:38;100547.69;;;10.33;82.55
70781;BME280;59514;48.810;2.134;2023-04-07T09:35:05;100558.28;;;10.47;82.84
70781;BME280;59514;48.810;2.134;2023-04-07T09:37:31;100562.72;;;10.59;80.53
70781;BME280;59514;48.810;2.134;2023-04-07T09:39:56;100552.59;;;10.61;78.35
70781;BME280;59514;48.810;2.134;2023-04-07T09:42:21;100553.16;;;10.70;75.84
70781;BME280;59514;48.810;2.134;2023-04-07T09:44:47;100549.22;;;11.08;79.97
70781;BME280;59514;48.810;2.134;2023-04-07T09:47:12;100557.50;;;11.43;76.75
70781;BME280;59514;48.810;2.134;2023-04-07T09:49:49;100544.84;;;11.62;71.40
70781;BME280;59514;48.810;2.134;2023-04-07T09:52:16;100553.47;;;11.82;72.19
70781;BME280;59514;48.810;2.134;2023-04-07T09:54:44;100548.31;;;12.10;74.46
70781;BME280;59514;48.810;2.134;2023-04-07T09:57:11;100556.66;;;12.20;73.21
70781;BME280;59514;48.810;2.134;2023-04-07T09:59:38;100561.53;;;12.11;71.89
70781;BME280;59514;48.810;2.134;2023-04-07T10:02:07;100555.47;;;11.75;71.23
70781;BME280;59514;48.810;2.134;2023-04-07T10:04:32;100553.97;;;11.61;71.78
70781;BME280;59514;48.810;2.134;2023-04-07T10:06:58;100554.47;;;11.69;67.17
70781;BME280;59514;48.810;2.134;2023-04-07T10:09:27;100564.44;;;11.69;61.85
70781;BME280;59514;48.810;2.134;2023-04-07T10:11:53;100563.25;;;11.47;60.10
70781;BME280;59514;48.810;2.134;2023-04-07T10:14:21;100553.22;;;11.54;60.50
70781;BME280;59514;48.810;2.134;2023-04-07T10:16:48;100551.28;;;11.61;64.12
70781;BME280;59514;48.810;2.134;2023-04-07T10:19:14;100562.09;;;11.72;62.78
70781;BME280;59514;48.810;2.134;2023-04-07T10:21:42;100554.44;;;11.87;58.74
70781;BME280;59514;48.810;2.134;2023-04-07T10:24:30;100558.00;;;11.70;59.97
70781;BME280;59514;48.810;2.134;2023-04-07T10:27:03;100559.50;;;11.66;62.57
70781;BME280;59514;48.810;2.134;2023-04-07T10:29:40;100565.84;;;12.01;62.01
70781;BME280;59514;48.810;2.134;2023-04-07T10:32:06;100551.84;;;12.22;63.55
70781;BME280;59514;48.810;2.134;2023-04-07T10:34:58;100553.06;;;12.49;59.42
70781;BME280;59514;48.810;2.134;2023-04-07T10:37:25;100557.06;;;13.16;62.51
70781;BME280;59514;48.810;2.134;2023-04-07T10:42:44;100554.66;;;13.43;55.68
70781;BME280;59514;48.810;2.134;2023-04-07T10:45:10;100554.75;;;13.48;56.52
70781;BME280;59514;48.810;2.134;2023-04-07T10:50:27;100552.06;;;13.48;61.88
70781;BME280;59514;48.810;2.134;2023-04-07T10:53:14;100539.88;;;13.45;53.91
70781;BME280;59514;48.810;2.134;2023-04-07T10:55:40;100544.34;;;13.40;51.88
70781;BME280;59514;48.810;2.134;2023-04-07T11:03:40;100542.78;;;14.28;46.80
70781;BME280;59514;48.810;2.134;2023-04-07T11:08:40;100544.09;;;15.35;46.19
70781;BME280;59514;48.810;2.134;2023-04-07T11:11:13;100528.56;;;15.47;45.66
70781;BME280;59514;48.810;2.134;2023-04-07T11:13:49;100534.28;;;15.99;45.06
70781;BME280;59514;48.810;2.134;2023-04-07T11:16:17;100538.19;;;15.60;44.70
70781;BME280;59514;48.810;2.134;2023-04-07T11:18:43;100527.50;;;14.89;47.55
70781;BME280;59514;48.810;2.134;2023-04-07T11:21:10;100541.47;;;14.81;57.24
70781;BME280;59514;48.810;2.134;2023-04-07T11:23:38;100545.00;;;14.31;49.03
70781;BME280;59514;48.810;2.134;2023-04-07T11:26:05;100546.78;;;13.81;50.58
70781;BME280;59514;48.810;2.134;2023-04-07T11:28:30;100540.88;;;13.84;53.95
70781;BME280;59514;48.810;2.134;2023-04-07T11:30:57;100543.69;;;13.61;53.57
70781;BME280;59514;48.810;2.134;2023-04-07T11:33:28;100545.75;;;13.31;54.21
70781;BME280;59514;48.810;2.134;2023-04-07T11:35:56;100541.75;;;14.01;54.86
70781;BME280;59514;48.810;2.134;2023-04-07T11:38:23;100535.00;;;14.65;51.27
70781;BME280;59514;48.810;2.134;2023-04-07T11:40:49;100530.06;;;15.38;49.21
70781;BME280;59514;48.810;2.134;2023-04-07T11:43:23;100536.53;;;16.39;51.90
70781;BME280;59514;48.810;2.134;2023-04-07T11:48:33;100530.59;;;16.10;46.44
70781;BME280;59514;48.810;2.134;2023-04-07T11:50:59;100525.41;;;15.34;50.61
70781;BME280;59514;48.810;2.134;2023-04-07T11:53:33;100536.75;;;15.31;48.53
70781;BME280;59514;48.810;2.134;2023-04-07T11:58:25;100536.56;;;14.44;49.71
70781;BME280;59514;48.810;2.134;2023-04-07T12:00:57;100540.66;;;14.30;49.91
70781;BME280;59514;48.810;2.134;2023-04-07T12:03:23;100539.19;;;14.39;52.26
70781;BME280;59514;48.810;2.134;2023-04-07T12:05:49;100538.81;;;14.86;48.44
70781;BME280;59514;48.810;2.134;2023-04-07T12:08:15;100533.69;;;15.92;46.93
70781;BME280;59514;48.810;2.134;2023-04-07T12:10:41;100536.16;;;16.57;42.89
70781;BME280;59514;48.810;2.134;2023-04-07T12:13:07;100525.97;;;17.26;42.62
70781;BME280;59514;48.810;2.134;2023-04-07T12:15:34;100528.59;;;17.68;41.96
70781;BME280;59514;48.810;2.134;2023-04-07T12:18:01;100523.84;;;17.33;40.39
70781;BME280;59514;48.810;2.134;2023-04-07T12:20:27;100531.91;;;17.75;42.26
70781;BME280;59514;48.810;2.134;2023-04-07T12:22:53;100528.19;;;17.34;43.47
70781;BME280;59514;48.810;2.134;2023-04-07T12:25:18;100533.59;;;16.82;44.60
70781;BME280;59514;48.810;2.134;2023-04-07T12:27:43;100531.81;;;16.24;43.10
70781;BME280;59514;48.810;2.134;2023-04-07T12:30:09;100535.59;;;16.23;45.93
70781;BME280;59514;48.810;2.134;2023-04-07T12:32:35;100533.88;;;16.12;47.01
70781;BME280;59514;48.810;2.134;2023-04-07T12:35:01;100528.94;;;16.09;46.43
70781;BME280;59514;48.810;2.134;2023-04-07T12:37:27;100532.00;;;15.86;50.69
70781;BME280;59514;48.810;2.134;2023-04-07T12:39:52;100535.66;;;16.02;49.71
70781;BME280;59514;48.810;2.134;2023-04-07T12:42:18;100529.31;;;15.91;46.93
70781;BME280;59514;48.810;2.134;2023-04-07T12:44:43;100524.06;;;16.06;44.93
70781;BME280;59514;48.810;2.134;2023-04-07T12:47:09;100529.50;;;16.11;43.55
70781;BME280;59514;48.810;2.134;2023-04-07T12:49:36;100526.91;;;15.68;45.80
70781;BME280;59514;48.810;2.134;2023-04-07T12:52:01;100537.75;;;15.25;47.15
70781;BME280;59514;48.810;2.134;2023-04-07T12:54:27;100535.97;;;15.35;49.29
70781;BME280;59514;48.810;2.134;2023-04-07T12:56:53;100531.91;;;15.33;46.45
70781;BME280;59514;48.810;2.134;2023-04-07T12:59:18;100532.59;;;16.25;47.63
70781;BME280;59514;48.810;2.134;2023-04-07T13:01:44;100520.25;;;16.71;42.53
70781;BME280;59514;48.810;2.134;2023-04-07T13:04:09;100521.81;;;17.55;45.86
70781;BME280;59514;48.810;2.134;2023-04-07T13:06:35;100518.84;;;17.67;42.05
70781;BME280;59514;48.810;2.134;2023-04-07T13:09:00;100510.31;;;17.43;42.33
70781;BME280;59514;48.810;2.134;2023-04-07T13:11:25;100512.84;;;16.98;45.48
70781;BME280;59514;48.810;2.134;2023-04-07T13:13:51;100519.97;;;16.35;45.31